createdAt,value
2019-05-18T00:01:24.932Z,11.26
2019-05-18T00:03:53.446Z,11.22
2019-05-18T00:06:22.132Z,11.27
2019-05-18T00:08:50.704Z,11.44
2019-05-18T00:11:19.233Z,11.45
2019-05-18T00:13:47.834Z,11.38
2019-05-18T00:16:16.313Z,11.13
2019-05-18T00:18:44.903Z,10.98
2019-05-18T00:21:13.522Z,11.08
2019-05-18T00:23:42.893Z,11.07
2019-05-18T00:26:11.515Z,11.03
2019-05-18T00:28:42.589Z,11.10
2019-05-18T00:31:11.234Z,10.94
2019-05-18T00:33:39.785Z,10.86
2019-05-18T00:36:08.405Z,10.81
2019-05-18T00:38:36.930Z,10.78
2019-05-18T00:41:05.540Z,10.84
2019-05-18T00:43:34.080Z,11.02
2019-05-18T00:46:02.697Z,10.86
2019-05-18T00:48:31.258Z,10.95
2019-05-18T00:50:59.781Z,11.11
2019-05-18T00:53:28.399Z,11.22
2019-05-18T00:55:56.971Z,11.23
2019-05-18T00:58:26.114Z,11.37
2019-05-18T01:00:54.646Z,11.29
2019-05-18T01:03:23.272Z,11.28
2019-05-18T01:05:51.871Z,11.16
2019-05-18T01:08:20.413Z,11.34
2019-05-18T01:10:49.053Z,11.10
2019-05-18T01:13:17.640Z,10.91
2019-05-18T01:15:46.314Z,10.59
2019-05-18T01:18:14.922Z,10.41
2019-05-18T01:20:43.549Z,10.32
2019-05-18T01:23:12.077Z,10.31
2019-05-18T01:25:40.674Z,10.10
2019-05-18T01:28:09.294Z,10.15
2019-05-18T01:30:38.330Z,10.28
2019-05-18T01:33:06.864Z,10.40
2019-05-18T01:35:35.457Z,10.69
2019-05-18T01:38:04.185Z,10.71
2019-05-18T01:40:32.698Z,10.72
2019-05-18T01:43:01.324Z,10.71
2019-05-18T01:45:29.862Z,10.62
2019-05-18T01:48:12.615Z,10.74
2019-05-18T01:50:28.625Z,10.85
2019-05-18T01:52:57.255Z,10.64
2019-05-18T01:55:25.769Z,10.45
2019-05-18T01:57:54.444Z,10.55
2019-05-18T02:00:23.359Z,10.65
2019-05-18T02:02:51.896Z,10.59
2019-05-18T02:05:20.462Z,10.62
2019-05-18T02:07:49.029Z,10.74
2019-05-18T02:10:17.944Z,10.97
2019-05-18T02:12:46.517Z,10.82
2019-05-18T02:15:15.795Z,10.96
2019-05-18T02:17:44.272Z,11.18
2019-05-18T02:20:13.066Z,11.10
2019-05-18T02:22:41.509Z,11.27
2019-05-18T02:25:10.322Z,11.51
2019-05-18T02:27:38.838Z,11.61
2019-05-18T02:30:08.696Z,11.54
2019-05-18T02:32:37.198Z,11.36
2019-05-18T02:35:07.122Z,11.25
2019-05-18T02:37:35.720Z,11.36
2019-05-18T02:40:06.366Z,11.44
2019-05-18T02:42:35.067Z,11.24
2019-05-18T02:45:04.724Z,11.24
2019-05-18T02:47:33.282Z,11.02
2019-05-18T02:50:01.820Z,11.04
2019-05-18T02:52:30.369Z,11.10
2019-05-18T02:54:58.812Z,11.20
2019-05-18T02:57:27.447Z,11.34
2019-05-18T02:59:56.094Z,11.30
2019-05-18T03:02:24.583Z,11.36
2019-05-18T03:04:53.140Z,11.27
2019-05-18T03:07:21.586Z,11.38
2019-05-18T03:09:50.310Z,11.61
2019-05-18T03:12:18.907Z,11.54
2019-05-18T03:14:47.543Z,11.72
2019-05-18T03:17:16.145Z,11.66
2019-05-18T03:19:44.806Z,11.58
2019-05-18T03:22:13.343Z,11.36
2019-05-18T03:24:41.855Z,11.16
2019-05-18T03:27:10.417Z,11.26
2019-05-18T03:29:38.975Z,11.57
2019-05-18T03:32:07.517Z,11.73
2019-05-18T03:34:36.069Z,11.65
2019-05-18T03:37:04.670Z,11.39
2019-05-18T03:39:33.326Z,11.38
2019-05-18T03:42:01.934Z,11.63
2019-05-18T03:44:30.583Z,11.64
2019-05-18T03:46:59.095Z,11.83
2019-05-18T03:49:27.890Z,11.85
2019-05-18T03:51:56.652Z,11.76
2019-05-18T03:54:25.360Z,11.80
2019-05-18T03:56:53.867Z,11.67
2019-05-18T03:59:22.353Z,11.70
2019-05-18T04:01:50.891Z,11.99
2019-05-18T04:04:19.433Z,12.10
2019-05-18T04:06:48.034Z,11.79
2019-05-18T04:09:16.668Z,11.66
2019-05-18T04:11:45.386Z,11.55
2019-05-18T04:14:13.905Z,11.31
2019-05-18T04:16:42.392Z,11.19
2019-05-18T04:19:10.977Z,11.35
2019-05-18T04:21:39.534Z,11.51
2019-05-18T04:24:08.045Z,11.94
2019-05-18T04:26:36.781Z,12.28
2019-05-18T04:29:05.683Z,12.34
2019-05-18T04:31:34.279Z,12.28
2019-05-18T04:34:02.871Z,12.04
2019-05-18T04:36:31.477Z,11.99
2019-05-18T04:38:59.945Z,12.04
2019-05-18T04:41:28.457Z,12.22
2019-05-18T04:43:57.072Z,12.20
2019-05-18T04:46:25.631Z,11.91
2019-05-18T04:48:54.267Z,12.06
2019-05-18T04:51:22.781Z,12.25
2019-05-18T04:53:51.269Z,12.42
2019-05-18T04:56:19.849Z,12.18
2019-05-18T04:58:48.341Z,12.01
2019-05-18T05:01:16.965Z,11.94
2019-05-18T05:03:45.895Z,11.98
2019-05-18T05:06:14.459Z,12.35
2019-05-18T05:08:43.067Z,12.62
2019-05-18T05:11:11.629Z,12.69
2019-05-18T05:13:40.113Z,12.60
2019-05-18T05:16:08.606Z,12.66
2019-05-18T05:18:37.102Z,12.59
2019-05-18T05:21:07.187Z,12.60
2019-05-18T05:23:35.784Z,12.61
2019-05-18T05:26:04.433Z,12.52
2019-05-18T05:28:33.043Z,12.45
2019-05-18T05:31:01.585Z,12.63
2019-05-18T05:33:30.082Z,12.63
2019-05-18T05:35:58.705Z,13.00
2019-05-18T05:38:27.222Z,13.06
2019-05-18T05:40:55.813Z,13.11
2019-05-18T05:43:24.387Z,13.08
2019-05-18T05:45:53.136Z,13.06
2019-05-18T05:48:21.742Z,13.20
2019-05-18T05:50:50.202Z,13.53
2019-05-18T05:53:18.823Z,13.75
2019-05-18T05:55:47.342Z,13.96
2019-05-18T05:58:16.585Z,14.10
2019-05-18T06:00:45.284Z,13.98
2019-05-18T06:03:13.814Z,13.77
2019-05-18T06:05:42.438Z,13.78
2019-05-18T06:08:10.942Z,13.89
2019-05-18T06:10:39.561Z,13.82
2019-05-18T06:13:08.131Z,13.93
2019-05-18T06:15:36.614Z,14.02
2019-05-18T06:18:05.147Z,13.91
2019-05-18T06:20:33.595Z,13.91
2019-05-18T06:23:02.140Z,13.83
2019-05-18T06:25:34.209Z,13.85
2019-05-18T06:28:00.927Z,13.96
2019-05-18T06:30:29.387Z,14.11
2019-05-18T06:32:57.932Z,14.19
2019-05-18T06:35:26.523Z,14.25
2019-05-18T06:37:55.087Z,14.24
2019-05-18T06:40:23.620Z,14.11
2019-05-18T06:42:52.543Z,14.14
2019-05-18T06:45:21.251Z,14.32
2019-05-18T06:47:49.787Z,14.38
2019-05-18T06:50:21.386Z,14.44
2019-05-18T06:52:49.903Z,14.52
2019-05-18T06:55:18.605Z,14.37
2019-05-18T06:57:47.795Z,14.32
2019-05-18T07:00:18.976Z,14.44
2019-05-18T07:02:47.598Z,14.54
2019-05-18T07:05:16.197Z,14.64
2019-05-18T07:07:44.703Z,14.77
2019-05-18T07:10:13.650Z,14.80
2019-05-18T07:12:42.186Z,15.03
2019-05-18T07:15:12.262Z,15.19
2019-05-18T07:17:40.795Z,15.09
2019-05-18T07:20:09.827Z,14.94
2019-05-18T07:22:38.355Z,15.00
2019-05-18T07:25:08.498Z,14.86
2019-05-18T07:27:37.198Z,14.73
2019-05-18T07:30:08.102Z,14.78
2019-05-18T07:32:36.892Z,15.02
2019-05-18T07:35:06.677Z,15.07
2019-05-18T07:37:35.831Z,15.21
2019-05-18T07:40:08.780Z,15.24
2019-05-18T07:42:37.386Z,15.52
2019-05-18T07:45:10.436Z,15.78
2019-05-18T07:47:39.069Z,16.54
2019-05-18T07:50:08.096Z,16.54
2019-05-18T07:52:36.617Z,16.74
2019-05-18T07:55:06.777Z,17.11
2019-05-18T07:57:35.401Z,17.37
2019-05-18T08:00:05.229Z,17.49
2019-05-18T08:02:33.727Z,17.84
2019-05-18T08:05:02.325Z,18.01
2019-05-18T08:07:30.817Z,18.30
2019-05-18T08:09:59.425Z,18.67
2019-05-18T08:12:27.945Z,19.37
2019-05-18T08:14:56.662Z,19.67
2019-05-18T08:17:25.289Z,19.99
2019-05-18T08:19:53.853Z,20.50
2019-05-18T08:22:22.369Z,20.60
2019-05-18T08:24:50.921Z,20.15
2019-05-18T08:27:19.571Z,19.79
2019-05-18T08:29:48.297Z,19.38
2019-05-18T08:32:16.691Z,19.02
2019-05-18T08:34:45.344Z,19.05
2019-05-18T08:37:13.862Z,19.02
2019-05-18T08:39:42.474Z,18.82
2019-05-18T08:42:10.953Z,18.95
2019-05-18T08:44:40.941Z,19.14
2019-05-18T08:47:09.468Z,19.67
2019-05-18T08:49:38.052Z,20.36
2019-05-18T08:52:08.618Z,20.67
2019-05-18T08:54:36.861Z,20.84
2019-05-18T08:57:05.420Z,20.98
2019-05-18T08:59:33.946Z,20.99
2019-05-18T09:02:02.537Z,20.93
2019-05-18T09:04:31.219Z,21.31
2019-05-18T09:06:59.869Z,21.68
2019-05-18T09:09:28.465Z,21.92
2019-05-18T09:11:57.084Z,21.88
2019-05-18T09:14:25.655Z,21.94
2019-05-18T09:16:54.214Z,21.83
2019-05-18T09:19:22.757Z,21.54
2019-05-18T09:21:51.393Z,21.59
2019-05-18T09:24:19.910Z,21.69
2019-05-18T09:26:49.204Z,21.50
2019-05-18T09:29:17.666Z,21.61
2019-05-18T09:31:46.441Z,21.77
2019-05-18T09:34:14.999Z,21.87
2019-05-18T09:36:43.618Z,21.70
2019-05-18T09:39:12.177Z,21.78
2019-05-18T09:41:40.889Z,21.93
2019-05-18T09:44:09.473Z,22.07
2019-05-18T09:46:38.069Z,22.22
2019-05-18T09:49:07.069Z,22.30
2019-05-18T09:51:36.094Z,22.45
2019-05-18T09:54:04.714Z,22.78
2019-05-18T09:56:33.362Z,22.96
2019-05-18T09:59:02.162Z,23.37
2019-05-18T10:01:30.742Z,23.72
2019-05-18T10:03:59.482Z,23.89
2019-05-18T10:06:28.079Z,24.16
2019-05-18T10:08:57.434Z,24.70
2019-05-18T10:11:26.080Z,25.09
2019-05-18T10:13:54.656Z,25.38
2019-05-18T10:16:23.701Z,25.32
2019-05-18T10:18:52.412Z,25.32
2019-05-18T10:21:21.026Z,25.41
2019-05-18T10:23:49.526Z,25.39
2019-05-18T10:26:18.178Z,25.40
2019-05-18T10:28:46.917Z,25.35
2019-05-18T10:31:15.582Z,25.49
2019-05-18T10:33:44.262Z,25.75
2019-05-18T10:36:12.923Z,25.97
2019-05-18T10:38:41.429Z,25.79
2019-05-18T10:41:10.104Z,26.01
2019-05-18T10:43:38.617Z,26.10
2019-05-18T10:46:07.210Z,26.08
2019-05-18T10:48:35.840Z,26.17
2019-05-18T10:51:05.710Z,26.27
2019-05-18T10:53:34.331Z,25.93
2019-05-18T10:56:03.072Z,26.14
2019-05-18T10:58:33.685Z,26.37
2019-05-18T11:01:02.325Z,26.61
2019-05-18T11:03:30.974Z,26.88
2019-05-18T11:05:59.548Z,26.90
2019-05-18T11:08:28.071Z,26.61
2019-05-18T11:10:56.633Z,26.36
2019-05-18T11:13:25.200Z,26.30
2019-05-18T11:15:54.443Z,26.16
2019-05-18T11:18:23.050Z,25.85
2019-05-18T11:20:51.669Z,25.52
2019-05-18T11:23:20.283Z,25.59
2019-05-18T11:25:48.884Z,25.81
2019-05-18T11:28:17.447Z,26.37
2019-05-18T11:30:46.158Z,27.00
2019-05-18T11:33:14.742Z,27.35
2019-05-18T11:35:43.355Z,27.68
2019-05-18T11:38:11.989Z,27.60
2019-05-18T11:40:40.627Z,27.78
2019-05-18T11:43:09.212Z,28.10
2019-05-18T11:45:39.460Z,28.09
2019-05-18T11:48:08.021Z,27.80
2019-05-18T11:50:36.617Z,27.62
2019-05-18T11:53:05.242Z,27.54
2019-05-18T11:55:33.881Z,27.18
2019-05-18T11:58:02.504Z,26.87
2019-05-18T12:00:31.166Z,27.22
2019-05-18T12:02:59.741Z,27.58
2019-05-18T12:05:28.261Z,27.74
2019-05-18T12:07:56.874Z,27.68
2019-05-18T12:10:27.441Z,27.66
2019-05-18T12:12:56.060Z,27.87
2019-05-18T12:15:25.459Z,27.84
2019-05-18T12:17:54.047Z,27.68
2019-05-18T12:20:22.728Z,27.74
2019-05-18T12:22:51.278Z,27.32
2019-05-18T12:25:19.971Z,27.44
2019-05-18T12:27:48.637Z,27.56
2019-05-18T12:30:17.988Z,27.34
2019-05-18T12:32:46.620Z,26.96
2019-05-18T12:35:16.847Z,26.60
2019-05-18T12:37:45.368Z,26.50
2019-05-18T12:40:16.907Z,26.95
2019-05-18T12:42:45.569Z,27.24
2019-05-18T12:45:16.261Z,26.97
2019-05-18T12:47:44.780Z,26.55
2019-05-18T12:50:14.747Z,26.31
2019-05-18T12:52:43.283Z,26.73
2019-05-18T12:55:12.456Z,27.16
2019-05-18T12:57:41.109Z,27.45
2019-05-18T13:00:12.296Z,27.57
2019-05-18T13:02:40.876Z,27.57
2019-05-18T13:05:09.875Z,27.60
2019-05-18T13:07:38.500Z,27.83
2019-05-18T13:10:09.840Z,27.90
2019-05-18T13:12:38.637Z,27.73
2019-05-18T13:15:09.263Z,27.79
2019-05-18T13:17:37.907Z,28.08
2019-05-18T13:20:08.430Z,28.15
2019-05-18T13:22:37.048Z,28.16
2019-05-18T13:25:06.749Z,28.20
2019-05-18T13:27:39.547Z,27.92
2019-05-18T13:30:11.057Z,27.64
2019-05-18T13:32:39.767Z,27.21
2019-05-18T13:35:09.685Z,27.31
2019-05-18T13:37:38.205Z,27.32
2019-05-18T13:40:08.481Z,26.97
2019-05-18T13:42:37.142Z,26.82
2019-05-18T13:45:08.101Z,26.76
2019-05-18T13:47:36.721Z,26.97
2019-05-18T13:50:06.149Z,26.92
2019-05-18T13:52:34.769Z,26.79
2019-05-18T13:55:05.168Z,27.00
2019-05-18T13:57:33.977Z,27.07
2019-05-18T14:00:02.582Z,26.68
2019-05-18T14:02:31.186Z,26.91
2019-05-18T14:04:59.785Z,26.91
2019-05-18T14:07:28.505Z,27.13
2019-05-18T14:09:57.096Z,27.35
2019-05-18T14:12:25.715Z,27.46
2019-05-18T14:14:54.321Z,27.34
2019-05-18T14:17:22.779Z,27.20
2019-05-18T14:19:51.414Z,27.41
2019-05-18T14:22:20.040Z,27.46
2019-05-18T14:24:48.578Z,27.65
2019-05-18T14:27:17.160Z,27.58
2019-05-18T14:29:45.791Z,27.75
2019-05-18T14:32:14.308Z,27.90
2019-05-18T14:34:42.924Z,27.74
2019-05-18T14:37:11.624Z,27.38
2019-05-18T14:39:40.247Z,27.28
2019-05-18T14:42:08.850Z,27.34
2019-05-18T14:44:37.394Z,27.64
2019-05-18T14:47:06.049Z,27.62
2019-05-18T14:49:34.606Z,27.40
2019-05-18T14:52:03.211Z,27.54
2019-05-18T14:54:31.818Z,27.67
2019-05-18T14:57:00.406Z,27.81
2019-05-18T14:59:28.999Z,27.70
2019-05-18T15:01:57.723Z,27.64
2019-05-18T15:04:26.322Z,27.76
2019-05-18T15:06:54.840Z,27.67
2019-05-18T15:09:23.374Z,27.58
2019-05-18T15:11:52.056Z,27.82
2019-05-18T15:14:20.680Z,27.55
2019-05-18T15:16:49.300Z,27.36
2019-05-18T15:19:17.978Z,27.32
2019-05-18T15:21:46.604Z,27.44
2019-05-18T15:24:15.228Z,27.41
2019-05-18T15:26:43.835Z,27.32
2019-05-18T15:29:12.420Z,27.34
2019-05-18T15:31:41.040Z,27.05
2019-05-18T15:34:09.648Z,26.48
2019-05-18T15:36:38.269Z,25.74
2019-05-18T15:39:07.516Z,25.04
2019-05-18T15:41:36.134Z,24.31
2019-05-18T15:44:05.018Z,23.41
2019-05-18T15:46:33.638Z,22.54
2019-05-18T15:49:02.229Z,21.92
2019-05-18T15:51:30.831Z,21.53
2019-05-18T15:53:59.435Z,21.34
2019-05-18T15:56:28.269Z,21.04
2019-05-18T15:58:56.859Z,20.76
2019-05-18T16:01:25.484Z,20.47
2019-05-18T16:03:54.886Z,20.47
2019-05-18T16:06:23.638Z,20.36
2019-05-18T16:08:52.261Z,20.19
2019-05-18T16:11:20.788Z,20.10
2019-05-18T16:13:49.324Z,20.08
2019-05-18T16:16:17.981Z,19.87
2019-05-18T16:18:46.639Z,19.72
2019-05-18T16:21:15.221Z,19.64
2019-05-18T16:23:43.858Z,19.45
2019-05-18T16:26:21.173Z,19.37
2019-05-18T16:28:42.737Z,19.32
2019-05-18T16:31:11.453Z,19.18
2019-05-18T16:33:40.054Z,19.11
2019-05-18T16:36:08.666Z,19.25
2019-05-18T16:38:37.249Z,19.26
2019-05-18T16:41:24.733Z,19.25
2019-05-18T16:43:53.315Z,19.15
2019-05-18T16:46:21.903Z,19.09
2019-05-18T16:48:50.599Z,19.04
2019-05-18T16:51:19.258Z,19.11
2019-05-18T16:53:50.160Z,19.15
2019-05-18T16:56:18.244Z,19.12
2019-05-18T16:58:46.824Z,19.12
2019-05-18T17:01:15.334Z,19.07
2019-05-18T17:03:43.955Z,19.08
2019-05-18T17:06:12.643Z,19.06
2019-05-18T17:08:41.277Z,19.17
2019-05-18T17:11:09.785Z,19.16
2019-05-18T17:13:38.427Z,19.06
2019-05-18T17:16:07.079Z,18.90
2019-05-18T17:18:35.703Z,18.91
2019-05-18T17:21:04.694Z,18.88
2019-05-18T17:23:33.253Z,18.97
2019-05-18T17:26:01.844Z,19.00
2019-05-18T17:28:30.331Z,18.93
2019-05-18T17:30:59.330Z,18.77
2019-05-18T17:33:27.922Z,18.60
2019-05-18T17:36:00.290Z,18.36
2019-05-18T17:38:26.838Z,18.41
2019-05-18T17:40:55.540Z,18.56
2019-05-18T17:43:24.150Z,18.56
2019-05-18T17:45:52.795Z,18.52
2019-05-18T17:48:21.410Z,18.53
2019-05-18T17:50:49.975Z,18.49
2019-05-18T17:53:18.627Z,18.48
2019-05-18T17:55:47.228Z,18.42
2019-05-18T17:58:15.820Z,18.41
2019-05-18T18:00:44.709Z,18.42
2019-05-18T18:03:13.222Z,18.57
2019-05-18T18:05:41.852Z,18.61
2019-05-18T18:08:10.427Z,18.56
2019-05-18T18:10:39.135Z,18.57
2019-05-18T18:13:09.575Z,18.58
2019-05-18T18:15:38.310Z,18.57
2019-05-18T18:18:06.909Z,18.64
2019-05-18T18:20:35.521Z,18.69
2019-05-18T18:23:04.148Z,18.76
2019-05-18T18:25:32.661Z,18.70
2019-05-18T18:28:01.302Z,18.70
2019-05-18T18:30:29.820Z,18.64
2019-05-18T18:32:58.444Z,18.54
2019-05-18T18:35:28.549Z,18.47
2019-05-18T18:37:57.185Z,18.54
2019-05-18T18:40:25.800Z,18.65
2019-05-18T18:42:54.414Z,18.67
2019-05-18T18:45:22.996Z,18.63
2019-05-18T18:47:51.602Z,18.53
2019-05-18T18:50:20.239Z,18.39
2019-05-18T18:52:48.851Z,18.32
2019-05-18T18:55:17.447Z,18.29
2019-05-18T18:57:46.021Z,18.25
2019-05-18T19:00:16.025Z,18.20
2019-05-18T19:02:44.743Z,18.10
2019-05-18T19:05:13.733Z,18.01
2019-05-18T19:07:42.378Z,17.92
2019-05-18T19:10:11.350Z,17.91
2019-05-18T19:12:39.839Z,18.01
2019-05-18T19:15:10.292Z,17.95
2019-05-18T19:17:38.945Z,18.00
2019-05-18T19:20:08.083Z,18.12
2019-05-18T19:22:36.624Z,18.20
2019-05-18T19:25:05.878Z,18.26
2019-05-18T19:27:34.515Z,18.26
2019-05-18T19:30:03.875Z,18.27
2019-05-18T19:32:32.527Z,18.27
2019-05-18T19:35:01.703Z,18.11
2019-05-18T19:37:30.316Z,18.04
2019-05-18T19:39:58.883Z,17.98
2019-05-18T19:42:27.526Z,17.95
2019-05-18T19:44:56.111Z,18.02
2019-05-18T19:47:24.629Z,18.12
2019-05-18T19:49:53.151Z,18.18
2019-05-18T19:52:21.759Z,18.13
2019-05-18T19:54:50.485Z,18.03
2019-05-18T19:57:19.148Z,17.85
2019-05-18T19:59:47.795Z,17.69
2019-05-18T20:02:18.469Z,17.50
2019-05-18T20:05:05.870Z,17.37
2019-05-18T20:07:17.060Z,17.24
2019-05-18T20:09:45.712Z,17.11
2019-05-18T20:12:14.306Z,16.96
2019-05-18T20:14:42.820Z,16.90
2019-05-18T20:17:11.485Z,16.85
2019-05-18T20:19:40.052Z,16.73
2019-05-18T20:22:08.724Z,16.67
2019-05-18T20:24:37.254Z,16.63
2019-05-18T20:27:05.865Z,16.58
2019-05-18T20:29:34.434Z,16.54
2019-05-18T20:32:03.034Z,16.44
2019-05-18T20:34:32.672Z,16.31
2019-05-18T20:37:01.311Z,16.26
2019-05-18T20:39:29.881Z,16.25
2019-05-18T20:41:58.433Z,16.22
2019-05-18T20:44:26.912Z,16.18
2019-05-18T20:46:55.615Z,16.16
2019-05-18T20:49:24.227Z,16.13
2019-05-18T20:51:52.881Z,16.12
2019-05-18T20:54:21.588Z,16.08
2019-05-18T20:56:50.294Z,16.04
2019-05-18T20:59:18.752Z,16.08
2019-05-18T21:01:47.388Z,16.11
2019-05-18T21:04:16.007Z,16.06
2019-05-18T21:06:45.615Z,16.06
2019-05-18T21:09:14.434Z,16.07
2019-05-18T21:11:42.998Z,16.12
2019-05-18T21:14:11.583Z,16.15
2019-05-18T21:16:40.190Z,16.19
2019-05-18T21:19:08.730Z,16.29
2019-05-18T21:21:37.272Z,16.35
2019-05-18T21:24:05.993Z,16.39
2019-05-18T21:26:34.674Z,16.48
2019-05-18T21:29:04.028Z,16.49
2019-05-18T21:31:33.109Z,16.60
2019-05-18T21:34:01.629Z,16.68
2019-05-18T21:36:30.132Z,16.65
2019-05-18T21:38:58.694Z,16.56
2019-05-18T21:41:27.327Z,16.55
2019-05-18T21:43:55.919Z,16.54
2019-05-18T21:46:24.543Z,16.51
2019-05-18T21:48:53.146Z,16.49
2019-05-18T21:51:21.719Z,16.54
2019-05-18T21:53:50.373Z,16.48
2019-05-18T21:56:18.873Z,16.53
2019-05-18T21:58:47.402Z,16.56
2019-05-18T22:01:16.042Z,16.54
2019-05-18T22:03:48.034Z,16.50
2019-05-18T22:06:14.997Z,16.41
2019-05-18T22:08:44.407Z,16.42
2019-05-18T22:11:13.085Z,16.44
2019-05-18T22:13:41.706Z,16.49
2019-05-18T22:16:10.264Z,16.52
2019-05-18T22:18:38.803Z,16.42
2019-05-18T22:21:07.545Z,16.40
2019-05-18T22:23:35.948Z,16.48
2019-05-18T22:26:04.578Z,16.58
2019-05-18T22:28:33.849Z,16.56
2019-05-18T22:31:02.463Z,16.56
2019-05-18T22:33:30.922Z,16.48
2019-05-18T22:35:59.473Z,16.50
2019-05-18T22:38:28.103Z,16.59
2019-05-18T22:40:56.628Z,16.64
2019-05-18T22:43:25.172Z,16.69
2019-05-18T22:45:53.856Z,16.67
2019-05-18T22:48:22.517Z,16.65
2019-05-18T22:50:51.126Z,16.65
2019-05-18T22:53:19.747Z,16.66
2019-05-18T22:55:48.339Z,16.66
2019-05-18T22:58:16.779Z,16.67
2019-05-18T23:00:45.417Z,16.71
2019-05-18T23:03:14.009Z,16.72
2019-05-18T23:05:42.594Z,16.65
2019-05-18T23:08:11.269Z,16.53
2019-05-18T23:10:39.921Z,16.57
2019-05-18T23:13:08.440Z,16.53
2019-05-18T23:15:37.100Z,16.59
2019-05-18T23:18:05.785Z,16.61
2019-05-18T23:20:34.537Z,16.64
2019-05-18T23:23:03.271Z,16.55
2019-05-18T23:25:31.889Z,16.47
2019-05-18T23:28:00.453Z,16.53
2019-05-18T23:30:28.978Z,16.58
2019-05-18T23:32:57.622Z,16.65
2019-05-18T23:35:26.189Z,16.63
2019-05-18T23:37:54.750Z,16.41
2019-05-18T23:40:23.360Z,16.24
2019-05-18T23:42:51.922Z,16.18
2019-05-18T23:45:21.434Z,16.02
2019-05-18T23:47:50.042Z,16.02
2019-05-18T23:50:18.649Z,16.13
2019-05-18T23:52:47.369Z,16.02
2019-05-18T23:55:16.008Z,16.00
2019-05-18T23:57:44.510Z,15.92
